Etusivu
METAR-TAF:

METAR-TAF

Lentoasemat :

Münster-Osnabrück, Saksa

Leveyspiiri: 52-08N, Pituuspiiri: 007-42E, korkeus merenpinnasta: 48 m

Tämänhetkinen sää

Tämä raportti tehtiin 22 minuuttia sitten, kello 18.20 UTC
Tuuli 7 kn lännestä
Lämpötila 11°C
Kosteus 58%
Ilmanpaine 1015 hPa
Näkyvyys 10 km tai enemmän
Muutamia pilviä 4800 ft:n korkeudessa

METAR: EDDG 261820Z 26007KT 9999 FEW048 11/03 Q1015 NOSIG

Aika: 20:42 (18:42 UTC)

Sääennuste

Tämä raportti tehtiin 1 tunti ja 42 minuuttia sitten, kello 17.00 UTC
Ennuste voimassa 26. päivästä klo 18 UTC - 27. päivään klo 18 UTC
Tuuli 15 kn lännestä/lounaasta
Näkyvyys 10 km tai enemmän
Hajanaisia pilviä 3500 ft:n korkeudessa
Tulossa
26. päivästä klo 18 UTC - 26. päivään klo 21 UTC
Tuuli 7 kn lännestä/lounaasta
Tulossa
26. päivästä klo 21 UTC - 26. päivään klo 23 UTC
Tuuli 4 kn etelästä

TAF: EDDG 261700Z 2618/2718 25015KT 9999 SCT035 BECMG 2618/2621 24007KT BECMG 2621/2623 18004KT

Säähavainnot ja -ennusteet yli 4000 lentoasemalta (METAR- ja TAF-raportit).

Käytössä olevat sääasemat on merkitty karttaan keltaisilla ja punaisilla pisteillä.

Aseta hiiri pisteen päälle nähdäksesi sääaseman nimen.

Klikkaa sitten nähdäksesi säähavainnot ja -ennusteet.

Kartan vaihtaminen: klikkaa mustalla rastilla varustettuja vihreitä pisteitä, niin voit zoomata sisään; viivalla varustettua vihreää pistettä, niin voit zoomata ulos tai vihreitä nuolia, niin pääset viereisille kartoille.


METAR-TAF: